Time,TemperatureF,DewpointF,PressureIn,WindDirection,WindDirectionDegrees,WindSpeedMPH,WindSpeedGustMPH,Humidity,HourlyPrecipIn,Conditions,Clouds,dailyrainin,SolarRadiationWatts/m^2,SoftwareType,DateUTC
2013-07-31 00:22:00,70.0,67.0,30.13,NNE,30,0.0,-999.0,90,-99.99,,,-99.99,0.000000,,2013-07-31 04:22:00,
2013-07-31 00:32:00,70.0,67.0,30.13,NNE,30,0.0,-999.0,90,-99.99,,,-99.99,0.000000,,2013-07-31 04:32:00,
2013-07-31 00:42:00,70.0,67.0,30.13,NNE,30,0.0,-999.0,90,-99.99,,,-99.99,0.000000,,2013-07-31 04:42:00,
2013-07-31 00:52:00,70.0,67.0,30.13,NNE,30,0.0,-999.0,90,-99.99,,,-99.99,0.000000,,2013-07-31 04:52:00,
2013-07-31 01:02:00,69.0,67.0,30.13,NNE,30,0.0,-999.0,92,-99.99,,,-99.99,0.000000,,2013-07-31 05:02:00,
2013-07-31 01:12:00,69.0,67.0,30.12,NNE,30,0.0,-999.0,92,-99.99,,,-99.99,0.000000,,2013-07-31 05:12:00,
2013-07-31 01:22:00,69.0,67.0,30.12,NNE,30,0.0,-999.0,92,-99.99,,,-99.99,0.000000,,2013-07-31 05:22:00,
2013-07-31 01:32:00,69.0,67.0,30.11,NNE,30,0.0,-999.0,92,-99.99,,,-99.99,0.000000,,2013-07-31 05:32:00,
2013-07-31 01:42:00,69.0,67.0,30.11,NNE,30,0.0,-999.0,93,-99.99,,,-99.99,0.000000,,2013-07-31 05:42:00,
2013-07-31 01:52:00,69.0,67.0,30.11,NNE,30,0.0,-999.0,93,-99.99,,,-99.99,0.000000,,2013-07-31 05:52:00,
2013-07-31 02:02:00,69.0,67.0,30.12,NNE,30,0.0,-999.0,93,-99.99,,,-99.99,0.000000,,2013-07-31 06:02:00,
2013-07-31 02:12:00,69.0,67.0,30.12,NNE,30,0.0,-999.0,93,-99.99,,,-99.99,0.000000,,2013-07-31 06:12:00,
2013-07-31 02:32:00,69.0,67.0,30.12,NNE,30,0.0,-999.0,93,-99.99,,,-99.99,0.000000,,2013-07-31 06:32:00,
2013-07-31 02:43:00,69.0,67.0,30.11,NNE,30,0.0,-999.0,93,-99.99,,,-99.99,0.000000,,2013-07-31 06:43:00,
2013-07-31 02:53:00,69.0,67.0,30.11,NNE,30,0.0,-999.0,93,-99.99,,,-99.99,0.000000,,2013-07-31 06:53:00,
2013-07-31 03:02:00,69.0,67.0,30.12,NNE,30,0.0,-999.0,93,-99.99,,,-99.99,0.000000,,2013-07-31 07:02:00,
2013-07-31 03:12:00,69.0,67.0,30.11,NNE,30,0.0,-999.0,93,-99.99,,,-99.99,0.000000,,2013-07-31 07:12:00,
2013-07-31 03:22:00,69.0,67.0,30.12,NNE,30,0.0,-999.0,93,-99.99,,,-99.99,0.000000,,2013-07-31 07:22:00,
2013-07-31 03:32:00,68.0,66.0,30.11,NNE,30,0.0,-999.0,93,-99.99,,,-99.99,0.000000,,2013-07-31 07:32:00,
2013-07-31 03:43:00,68.0,66.0,30.13,NNE,30,0.0,-999.0,93,-99.99,,,-99.99,0.000000,,2013-07-31 07:43:00,
2013-07-31 03:52:00,68.0,66.0,30.12,NNE,30,0.0,-999.0,93,-99.99,,,-99.99,0.000000,,2013-07-31 07:52:00,
2013-07-31 04:02:00,68.0,66.0,30.12,NNE,30,0.0,-999.0,93,-99.99,,,-99.99,0.000000,,2013-07-31 08:02:00,
2013-07-31 04:12:00,68.0,66.0,30.13,NNE,29,0.0,-999.0,93,-99.99,,,-99.99,0.000000,,2013-07-31 08:12:00,
2013-07-31 04:53:00,68.0,66.0,30.14,NNE,29,0.0,-999.0,94,-99.99,,,-99.99,0.000000,,2013-07-31 08:53:00,
2013-07-31 05:02:00,68.0,66.0,30.14,NNE,29,0.0,-999.0,94,-99.99,,,-99.99,0.000000,,2013-07-31 09:02:00,
2013-07-31 05:12:00,68.0,66.0,30.13,NNE,29,0.0,-999.0,94,-99.99,,,-99.99,0.000000,,2013-07-31 09:12:00,
2013-07-31 05:32:00,68.0,66.0,30.13,NNE,29,0.0,-999.0,94,-99.99,,,-99.99,0.000000,,2013-07-31 09:32:00,
2013-07-31 05:43:00,67.0,65.0,30.14,NNE,29,0.0,-999.0,94,-99.99,,,-99.99,0.000000,,2013-07-31 09:43:00,
2013-07-31 06:44:00,67.0,65.0,30.14,NNE,29,0.0,-999.0,94,-99.99,,,-99.99,0.000000,,2013-07-31 10:44:00,
2013-07-31 06:52:00,67.0,65.0,30.13,NNE,29,0.0,-999.0,94,-99.99,,,-99.99,0.000000,,2013-07-31 10:52:00,
2013-07-31 08:02:00,67.0,66.0,30.13,NNE,29,0.0,-999.0,95,-99.99,,,-99.99,12.000000,,2013-07-31 12:02:00,
2013-07-31 08:33:00,67.0,66.0,30.14,NNE,29,0.0,-999.0,95,-99.99,,,-99.99,23.000000,,2013-07-31 12:33:00,
2013-07-31 08:43:00,68.0,67.0,30.13,ENE,69,0.0,-999.0,96,-99.99,,,-99.99,30.000000,,2013-07-31 12:43:00,
2013-07-31 08:52:00,68.0,67.0,30.13,SSE,161,1.0,-999.0,96,-99.99,,,-99.99,32.000000,,2013-07-31 12:52:00,
2013-07-31 09:33:00,68.0,67.0,30.13,South,190,1.0,-999.0,96,-99.99,,,-99.99,46.000000,,2013-07-31 13:33:00,
2013-07-31 10:43:00,69.0,68.0,30.11,South,188,4.0,-999.0,95,-99.99,,,-99.99,113.000000,,2013-07-31 14:43:00,
2013-07-31 10:53:00,69.0,68.0,30.11,South,187,4.0,-999.0,95,-99.99,,,-99.99,109.000000,,2013-07-31 14:53:00,
2013-07-31 11:12:00,69.0,67.0,30.11,SSE,166,0.0,-999.0,94,-99.99,,,-99.99,76.000000,,2013-07-31 15:12:00,
2013-07-31 11:33:00,69.0,68.0,30.10,SSE,166,0.0,-999.0,95,-99.99,,,-99.99,93.000000,,2013-07-31 15:33:00,
2013-07-31 11:43:00,70.0,68.0,30.10,SSE,166,0.0,-999.0,95,-99.99,,,-99.99,139.000000,,2013-07-31 15:43:00,
2013-07-31 11:53:00,70.0,68.0,30.09,SSE,167,0.0,-999.0,95,-99.99,,,-99.99,253.000000,,2013-07-31 15:53:00,
2013-07-31 12:02:00,70.0,68.0,30.09,SSE,168,1.0,-999.0,95,-99.99,,,-99.99,350.000000,,2013-07-31 16:02:00,
2013-07-31 12:12:00,71.0,69.0,30.09,South,179,0.0,-999.0,95,-99.99,,,-99.99,306.000000,,2013-07-31 16:12:00,
2013-07-31 12:33:00,71.0,69.0,30.08,SSW,212,1.0,-999.0,94,-99.99,,,-99.99,174.000000,,2013-07-31 16:33:00,
2013-07-31 12:44:00,72.0,70.0,30.09,SW,230,1.0,-999.0,93,-99.99,,,-99.99,221.000000,,2013-07-31 16:44:00,
2013-07-31 12:52:00,72.0,70.0,30.09,SW,226,2.0,-999.0,93,-99.99,,,-99.99,250.000000,,2013-07-31 16:52:00,
2013-07-31 13:33:00,73.0,70.0,30.08,SSW,200,0.0,-999.0,90,-99.99,,,-99.99,107.000000,,2013-07-31 17:33:00,
2013-07-31 13:43:00,73.0,70.0,30.07,SSW,200,0.0,-999.0,91,-99.99,,,-99.99,171.000000,,2013-07-31 17:43:00,
2013-07-31 13:53:00,73.0,70.0,30.07,SSW,200,0.0,-999.0,91,-99.99,,,-99.99,146.000000,,2013-07-31 17:53:00,
2013-07-31 14:33:00,75.0,72.0,30.05,SSW,200,2.0,-999.0,89,-99.99,,,-99.99,172.000000,,2013-07-31 18:33:00,
2013-07-31 14:43:00,75.0,71.0,30.05,SSW,202,2.0,-999.0,88,-99.99,,,-99.99,120.000000,,2013-07-31 18:43:00,
2013-07-31 14:52:00,75.0,71.0,30.06,SSW,205,2.0,-999.0,88,-99.99,,,-99.99,100.000000,,2013-07-31 18:52:00,
2013-07-31 16:22:00,74.0,72.0,30.02,SSW,205,0.0,-999.0,92,-99.99,,,-99.99,188.000000,,2013-07-31 20:22:00,
2013-07-31 16:43:00,74.0,72.0,30.02,SW,233,2.0,-999.0,92,-99.99,,,-99.99,227.000000,,2013-07-31 20:43:00,
2013-07-31 16:52:00,74.0,72.0,30.02,SW,231,1.0,-999.0,93,-99.99,,,-99.99,176.000000,,2013-07-31 20:52:00,
2013-07-31 17:02:00,75.0,72.0,30.01,SW,230,1.0,-999.0,91,-99.99,,,-99.99,186.000000,,2013-07-31 21:02:00,
2013-07-31 17:32:00,75.0,72.0,30.00,SSW,196,1.0,-999.0,90,-99.99,,,-99.99,149.000000,,2013-07-31 21:32:00,
2013-07-31 18:43:00,76.0,73.0,29.98,SW,233,1.0,-999.0,89,-99.99,,,-99.99,118.000000,,2013-07-31 22:43:00,
2013-07-31 18:53:00,76.0,72.0,29.98,SW,232,2.0,-999.0,88,-99.99,,,-99.99,114.000000,,2013-07-31 22:53:00,
2013-07-31 19:02:00,76.0,72.0,29.97,SW,230,0.0,-999.0,88,-99.99,,,-99.99,65.000000,,2013-07-31 23:02:00,
2013-07-31 19:42:00,76.0,72.0,29.98,SW,229,0.0,-999.0,88,-99.99,,,-99.99,33.000000,,2013-07-31 23:42:00,
2013-07-31 19:52:00,76.0,72.0,29.98,SW,229,0.0,-999.0,88,-99.99,,,-99.99,28.000000,,2013-07-31 23:52:00,
2013-07-31 20:22:00,76.0,73.0,29.99,SW,229,0.0,-999.0,89,-99.99,,,-99.99,11.000000,,2013-08-01 00:22:00,
2013-07-31 20:32:00,75.0,72.0,29.98,SW,229,0.0,-999.0,89,-99.99,,,-99.99,9.000000,,2013-08-01 00:32:00,
2013-07-31 20:43:00,75.0,72.0,29.99,SW,229,0.0,-999.0,89,-99.99,,,-99.99,7.000000,,2013-08-01 00:43:00,
2013-07-31 20:52:00,75.0,72.0,29.99,SW,229,0.0,-999.0,89,-99.99,,,-99.99,0.000000,,2013-08-01 00:52:00,
2013-07-31 21:03:00,74.0,71.0,29.99,SW,229,0.0,-999.0,89,-99.99,,,-99.99,0.000000,,2013-08-01 01:03:00,
2013-07-31 21:12:00,74.0,71.0,29.99,SW,229,0.0,-999.0,90,-99.99,,,-99.99,0.000000,,2013-08-01 01:12:00,
2013-07-31 21:22:00,74.0,71.0,29.99,SW,229,0.0,-999.0,90,-99.99,,,-99.99,0.000000,,2013-08-01 01:22:00,
2013-07-31 21:33:00,73.0,70.0,29.99,SW,229,0.0,-999.0,90,-99.99,,,-99.99,0.000000,,2013-08-01 01:33:00,
2013-07-31 21:43:00,73.0,70.0,30.00,SW,229,0.0,-999.0,91,-99.99,,,-99.99,0.000000,,2013-08-01 01:43:00,
2013-07-31 22:02:00,73.0,70.0,30.00,SW,229,0.0,-999.0,91,-99.99,,,-99.99,0.000000,,2013-08-01 02:02:00,
2013-07-31 22:12:00,72.0,69.0,29.99,SW,229,0.0,-999.0,91,-99.99,,,-99.99,0.000000,,2013-08-01 02:12:00,
2013-07-31 23:43:00,72.0,70.0,29.99,SW,229,0.0,-999.0,93,-99.99,,,-99.99,0.000000,,2013-08-01 03:43:00,
2013-07-31 23:53:00,72.0,70.0,29.99,SW,229,0.0,-999.0,93,-99.99,,,-99.99,0.000000,,2013-08-01 03:53:00,